Time;durP1;ratioP1;P1;durP2;ratioP2;P2;SDS_P1;SDS_P2;PMS_P1;PMS_P2;Temp;Humidity;BMP_temperature;BMP_pressure;BME280_temperature;BME280_humidity;BME280_pressure;Samples;Min_cycle;Max_cycle;Signal;HPM_P1;HPM_P2
2021/10/18 00:04:22;;;;;;;30.85;13.75;;;;;;;9.87;100.00;95313.00;10277230;28;20129;-69
2021/10/18 00:09:23;;;;;;;32.28;14.18;;;;;;;9.88;100.00;95309.28;10278575;28;20097;-67
2021/10/18 00:14:23;;;;;;;34.08;15.77;;;;;;;9.86;100.00;95303.34;10276811;28;20029;-75
2021/10/18 00:19:24;;;;;;;30.65;14.85;;;;;;;9.85;100.00;95309.75;10276685;28;20022;-69
2021/10/18 00:24:25;;;;;;;32.88;13.73;;;;;;;9.87;100.00;95302.28;10278060;28;20090;-69
2021/10/18 00:29:25;;;;;;;26.17;13.48;;;;;;;9.94;100.00;95313.59;10277502;28;20030;-70
2021/10/18 00:34:25;;;;;;;28.30;14.13;;;;;;;9.92;100.00;95307.66;10276413;28;20027;-68
2021/10/18 00:39:26;;;;;;;27.65;13.70;;;;;;;9.93;100.00;95303.94;10277027;28;20624;-68
2021/10/18 00:44:26;;;;;;;30.15;14.38;;;;;;;9.93;100.00;95301.25;10276427;28;20046;-67
2021/10/18 00:49:27;;;;;;;27.80;13.73;;;;;;;9.94;100.00;95305.56;10277724;28;20413;-67
2021/10/18 00:54:27;;;;;;;30.95;13.52;;;;;;;9.95;100.00;95306.34;10276538;28;20026;-67
2021/10/18 00:59:28;;;;;;;29.70;14.35;;;;;;;9.83;100.00;95301.16;10277570;28;20420;-71
2021/10/18 01:04:29;;;;;;;33.28;16.95;;;;;;;9.75;100.00;95300.56;10252145;28;20030;-68
2021/10/18 01:09:30;;;;;;;33.67;15.70;;;;;;;9.87;100.00;95300.38;10244111;28;20413;-68
2021/10/18 01:14:30;;;;;;;46.13;17.48;;;;;;;9.93;100.00;95298.56;10275296;28;20011;-71
2021/10/18 01:19:31;;;;;;;33.30;15.17;;;;;;;9.94;100.00;95296.69;10292093;28;20023;-68
2021/10/18 01:24:33;;;;;;;35.75;15.50;;;;;;;9.90;100.00;95291.00;10291572;28;20290;-66
2021/10/18 01:29:36;;;;;;;32.17;15.98;;;;;;;9.85;100.00;95294.47;10275961;28;20489;-67
2021/10/18 01:34:37;;;;;;;29.98;15.02;;;;;;;9.85;100.00;95282.91;10275763;28;20019;-68
2021/10/18 01:39:37;;;;;;;28.67;14.45;;;;;;;9.88;100.00;95287.78;10276386;28;20031;-68
2021/10/18 01:44:38;;;;;;;26.80;14.18;;;;;;;9.91;100.00;95288.06;10277331;28;20042;-69
2021/10/18 01:49:38;;;;;;;26.27;13.02;;;;;;;9.90;100.00;95291.00;10284133;28;20104;-73
2021/10/18 01:54:38;;;;;;;30.33;13.40;;;;;;;9.97;100.00;95291.63;10282399;28;20019;-69
2021/10/18 01:59:39;;;;;;;31.40;13.33;;;;;;;9.98;100.00;95282.50;10282484;28;20289;-72
2021/10/18 02:04:39;;;;;;;26.92;11.43;;;;;;;9.97;100.00;95286.25;10266371;28;20317;-68
2021/10/18 02:09:40;;;;;;;24.47;12.33;;;;;;;10.05;100.00;95287.66;10283369;28;20038;-73
2021/10/18 02:14:40;;;;;;;22.85;10.95;;;;;;;10.10;100.00;95290.38;10281313;28;20282;-68
2021/10/18 02:19:41;;;;;;;28.30;12.70;;;;;;;10.12;100.00;95290.09;10281461;28;20158;-72
2021/10/18 02:24:41;;;;;;;27.35;11.73;;;;;;;10.13;100.00;95289.06;10283185;28;20033;-71
2021/10/18 02:29:42;;;;;;;26.33;12.40;;;;;;;10.14;100.00;95283.41;10281203;28;20031;-69
2021/10/18 02:34:42;;;;;;;26.42;11.90;;;;;;;10.21;100.00;95288.59;10282455;28;20552;-70
2021/10/18 02:39:43;;;;;;;32.33;12.43;;;;;;;10.23;100.00;95297.22;10280542;28;20134;-70
2021/10/18 02:44:43;;;;;;;25.45;11.15;;;;;;;10.23;100.00;95289.94;10280119;28;20046;-69
2021/10/18 02:49:44;;;;;;;26.92;12.40;;;;;;;10.22;100.00;95296.38;10263896;28;20118;-73
2021/10/18 02:54:44;;;;;;;27.57;10.87;;;;;;;10.21;100.00;95299.31;10256285;28;20023;-68
2021/10/18 02:59:44;;;;;;;27.47;12.60;;;;;;;10.21;100.00;95292.09;10241050;28;20969;-72
2021/10/18 03:04:46;;;;;;;27.70;11.87;;;;;;;10.21;100.00;95294.78;10279879;28;20312;-68
2021/10/18 03:09:46;;;;;;;26.70;11.80;;;;;;;10.23;100.00;95299.91;10280013;28;20397;-72
2021/10/18 03:14:46;;;;;;;37.60;13.47;;;;;;;10.20;100.00;95297.69;10279281;28;20019;-68
2021/10/18 03:19:47;;;;;;;24.30;11.82;;;;;;;10.21;100.00;95293.97;10279391;28;20278;-69
2021/10/18 03:24:47;;;;;;;28.67;12.15;;;;;;;10.19;100.00;95294.22;10279053;28;20027;-72
2021/10/18 03:29:48;;;;;;;29.93;12.53;;;;;;;10.21;100.00;95299.31;10278883;28;20611;-72
2021/10/18 03:34:48;;;;;;;29.13;13.88;;;;;;;10.16;100.00;95301.97;10278827;28;20274;-68
2021/10/18 03:39:49;;;;;;;25.52;12.20;;;;;;;10.16;100.00;95299.28;10278606;28;20030;-68
2021/10/18 03:44:50;;;;;;;31.87;12.67;;;;;;;10.20;100.00;95303.06;10253652;28;20047;-67
2021/10/18 03:49:50;;;;;;;29.63;12.35;;;;;;;10.20;100.00;95306.59;10222054;29;20278;-67
2021/10/18 03:54:50;;;;;;;24.13;12.27;;;;;;;10.22;100.00;95298.28;10237877;29;20163;-66
2021/10/18 03:59:51;;;;;;;27.03;13.00;;;;;;;10.17;100.00;95299.03;10266296;28;20026;-72
2021/10/18 04:04:51;;;;;;;26.07;12.20;;;;;;;10.17;100.00;95309.78;10278414;28;20749;-71
2021/10/18 04:09:52;;;;;;;30.67;12.87;;;;;;;10.20;100.00;95309.28;10276690;28;20290;-69
2021/10/18 04:14:52;;;;;;;33.17;12.88;;;;;;;10.21;100.00;95312.75;10276036;28;20863;-69
2021/10/18 04:19:53;;;;;;;32.70;14.02;;;;;;;10.19;100.00;95304.97;10276454;28;20026;-68
2021/10/18 04:24:53;;;;;;;28.98;13.15;;;;;;;10.19;100.00;95314.91;10278492;28;20061;-66
2021/10/18 04:29:54;;;;;;;42.97;14.17;;;;;;;10.19;100.00;95314.91;10274862;28;20022;-69
2021/10/18 04:34:54;;;;;;;30.00;13.10;;;;;;;10.24;100.00;95322.97;10276063;28;20268;-69
2021/10/18 04:39:54;;;;;;;32.58;12.88;;;;;;;10.22;100.00;95322.44;10275020;28;20834;-69
2021/10/18 04:44:55;;;;;;;32.97;14.13;;;;;;;10.12;100.00;95317.81;10271201;28;20053;-73
2021/10/18 04:49:55;;;;;;;28.90;11.80;;;;;;;10.04;100.00;95319.06;10274291;28;20668;-70
2021/10/18 04:54:56;;;;;;;32.67;13.27;;;;;;;10.15;100.00;95321.84;10274492;28;20395;-73
2021/10/18 04:59:56;;;;;;;29.08;12.88;;;;;;;10.19;100.00;95326.44;10274073;28;20324;-73
2021/10/18 05:04:57;;;;;;;29.35;12.65;;;;;;;10.24;100.00;95329.19;10275261;28;20034;-72
2021/10/18 05:09:57;;;;;;;32.23;12.17;;;;;;;10.18;100.00;95332.09;10275208;28;20026;-66
2021/10/18 05:14:57;;;;;;;29.35;12.32;;;;;;;10.22;100.00;95335.88;10274690;28;20357;-73
2021/10/18 05:19:58;;;;;;;28.77;12.73;;;;;;;10.09;100.00;95351.34;10278407;28;20583;-68
2021/10/18 05:24:58;;;;;;;33.22;12.90;;;;;;;10.10;100.00;95354.81;10283099;28;20280;-74
2021/10/18 05:29:59;;;;;;;27.52;12.65;;;;;;;9.96;100.00;95356.31;10283366;28;20019;-72
2021/10/18 05:34:59;;;;;;;24.05;11.88;;;;;;;9.78;100.00;95357.47;10282999;28;20037;-74
2021/10/18 05:40:00;;;;;;;28.15;12.32;;;;;;;9.81;100.00;95362.34;10282461;28;20432;-74
2021/10/18 05:45:00;;;;;;;23.07;11.97;;;;;;;9.82;100.00;95366.66;10282375;28;20105;-73
2021/10/18 05:50:01;;;;;;;41.92;11.95;;;;;;;9.69;100.00;95373.22;10282749;28;20277;-73
2021/10/18 05:55:01;;;;;;;32.10;12.32;;;;;;;9.64;100.00;95376.66;10282282;28;20093;-73
2021/10/18 06:00:02;;;;;;;29.87;11.57;;;;;;;9.82;100.00;95380.06;10282155;28;20069;-70
2021/10/18 06:05:03;;;;;;;24.23;12.38;;;;;;;10.01;100.00;95391.28;10281591;28;20278;-69
2021/10/18 06:10:05;;;;;;;26.52;12.45;;;;;;;10.20;100.00;95399.78;10281781;28;20121;-73
2021/10/18 06:15:07;;;;;;;28.80;13.18;;;;;;;10.25;100.00;95397.94;10281489;28;20054;-69
2021/10/18 06:20:08;;;;;;;25.52;13.07;;;;;;;10.37;100.00;95402.41;10281519;28;20026;-73
2021/10/18 06:25:09;;;;;;;28.38;13.20;;;;;;;10.41;100.00;95400.81;10282123;28;20516;-73
2021/10/18 06:30:10;;;;;;;33.45;15.57;;;;;;;10.41;100.00;95400.81;10280732;28;20134;-70
2021/10/18 06:35:10;;;;;;;36.22;13.95;;;;;;;10.17;100.00;95413.72;10280525;28;20392;-77
2021/10/18 06:40:11;;;;;;;37.23;15.50;;;;;;;10.05;100.00;95420.06;10279591;28;20026;-71
2021/10/18 06:45:12;;;;;;;35.38;16.42;;;;;;;9.96;100.00;95418.06;10280474;28;20290;-68
2021/10/18 06:50:12;;;;;;;33.17;14.88;;;;;;;9.82;100.00;95428.38;10281967;28;20031;-74
2021/10/18 06:55:16;;;;;;;31.40;14.98;;;;;;;9.92;100.00;95436.53;10280193;28;20094;-69
2021/10/18 07:00:16;;;;;;;33.42;13.43;;;;;;;10.04;100.00;95442.59;10264403;28;20038;-67
2021/10/18 07:05:18;;;;;;;30.93;14.57;;;;;;;10.01;100.00;95443.09;10279378;28;20043;-69
2021/10/18 07:10:18;;;;;;;34.67;14.82;;;;;;;10.07;100.00;95452.03;10279233;28;20278;-68
2021/10/18 07:15:19;;;;;;;32.85;13.15;;;;;;;10.13;100.00;95455.56;10262974;28;20022;-70
2021/10/18 07:20:19;;;;;;;37.47;14.57;;;;;;;10.46;100.00;95448.44;10279641;28;20492;-73
2021/10/18 07:25:20;;;;;;;35.83;13.73;;;;;;;10.72;100.00;95444.88;10278719;28;20079;-70
2021/10/18 07:30:21;;;;;;;32.65;12.55;;;;;;;10.90;100.00;95453.66;10278884;28;20038;-70
2021/10/18 07:35:27;;;;;;;32.63;13.50;;;;;;;11.17;100.00;95444.69;10278497;28;20030;-74
2021/10/18 07:40:28;;;;;;;30.30;13.27;;;;;;;11.37;100.00;95454.75;10277408;28;20209;-71
2021/10/18 07:45:29;;;;;;;29.58;11.98;;;;;;;11.58;100.00;95453.81;10277835;28;20035;-73
2021/10/18 07:50:30;;;;;;;22.85;10.43;;;;;;;11.72;100.00;95450.63;10278320;28;20034;-72
2021/10/18 07:55:34;;;;;;;36.28;13.35;;;;;;;11.98;100.00;95448.88;10277835;28;20409;-69
2021/10/18 08:00:34;;;;;;;23.55;11.82;;;;;;;12.11;100.00;95447.56;10261959;28;20046;-73
2021/10/18 08:05:35;;;;;;;24.20;11.50;;;;;;;11.90;100.00;95458.28;10276718;28;20046;-69
2021/10/18 08:10:35;;;;;;;23.33;9.93;;;;;;;11.77;100.00;95440.69;10277021;28;20480;-70
2021/10/18 08:15:36;;;;;;;23.25;10.20;;;;;;;12.20;100.00;95437.09;10277160;28;20270;-69
2021/10/18 08:20:37;;;;;;;24.87;8.57;;;;;;;12.44;100.00;95442.81;10278267;28;20080;-69
2021/10/18 08:25:40;;;;;;;26.23;11.40;;;;;;;12.56;100.00;95437.97;10276785;28;20742;-72
2021/10/18 08:30:40;;;;;;;18.05;9.43;;;;;;;12.60;100.00;95436.34;10277987;28;20445;-69
2021/10/18 08:35:41;;;;;;;21.90;9.95;;;;;;;12.63;100.00;95432.31;10260359;28;20031;-72
2021/10/18 08:40:57;;;;;;;19.58;10.18;;;;;;;12.67;100.00;95425.31;10276173;28;20051;-72
2021/10/18 08:45:58;;;;;;;19.65;9.85;;;;;;;12.75;100.00;95429.34;10275878;28;20065;-70
2021/10/18 08:50:58;;;;;;;26.77;10.70;;;;;;;12.92;100.00;95426.38;10276696;28;20095;-68
2021/10/18 08:55:59;;;;;;;21.23;9.70;;;;;;;13.05;100.00;95425.84;10275842;28;20278;-69
2021/10/18 09:00:59;;;;;;;20.07;9.87;;;;;;;12.18;100.00;95428.47;10276690;28;20529;-67
2021/10/18 09:06:17;;;;;;;22.60;9.30;;;;;;;12.65;100.00;95432.84;10275051;28;20278;-72
2021/10/18 09:11:22;;;;;;;16.93;9.50;;;;;;;13.00;100.00;95428.53;10276210;28;20038;-69
2021/10/18 09:16:32;;;;;;;21.83;9.85;;;;;;;13.24;100.00;95433.34;10275900;28;20031;-70
2021/10/18 09:21:57;;;;;;;22.48;10.18;;;;;;;13.37;100.00;95432.84;10277091;28;20039;-69
2021/10/18 09:27:03;;;;;;;20.33;8.68;;;;;;;13.41;100.00;95427.69;10276545;28;20035;-69
2021/10/18 09:32:04;;;;;;;18.15;8.52;;;;;;;13.26;100.00;95426.59;10275069;28;20022;-70
2021/10/18 09:37:23;;;;;;;20.40;10.02;;;;;;;13.44;100.00;95433.34;10275257;28;20093;-74
2021/10/18 09:42:24;;;;;;;19.10;9.20;;;;;;;13.60;100.00;95427.91;10274624;28;20047;-69
2021/10/18 10:52:11;;;;;;;25.52;11.43;;;;;;;13.97;100.00;95402.38;10281833;28;20030;-73
2021/10/18 10:57:13;;;;;;;27.02;12.75;;;;;;;14.01;100.00;95404.22;10279247;28;20034;-71
2021/10/18 11:02:26;;;;;;;24.95;11.65;;;;;;;14.10;100.00;95399.03;10279912;28;20030;-72
2021/10/18 11:07:35;;;;;;;25.23;10.98;;;;;;;14.17;100.00;95402.25;10278994;28;20526;-69
2021/10/18 11:12:41;;;;;;;21.13;11.55;;;;;;;14.31;100.00;95399.72;10279400;28;20027;-68
2021/10/18 11:17:53;;;;;;;22.45;11.57;;;;;;;14.40;100.00;95389.16;10278385;28;20181;-69
2021/10/18 11:23:02;;;;;;;25.58;12.35;;;;;;;14.62;100.00;95387.88;10278748;28;20062;-73
2021/10/18 11:28:05;;;;;;;26.05;11.65;;;;;;;14.49;100.00;95383.94;10279052;28;20093;-70
2021/10/18 11:33:13;;;;;;;27.10;11.27;;;;;;;14.70;100.00;95387.31;10277978;28;20041;-70
2021/10/18 11:38:16;;;;;;;24.50;12.17;;;;;;;14.67;100.00;95385.97;10279528;28;20450;-68
2021/10/18 11:43:19;;;;;;;24.38;11.20;;;;;;;14.62;100.00;95379.78;10277398;28;20386;-70
2021/10/18 11:48:28;;;;;;;22.83;11.60;;;;;;;14.62;100.00;95377.06;10277647;28;20031;-69
2021/10/18 11:53:33;;;;;;;22.58;11.65;;;;;;;13.83;100.00;95375.94;10259403;28;20035;-67
2021/10/18 11:58:38;;;;;;;23.90;11.18;;;;;;;13.94;100.00;95384.00;10270438;28;20027;-72
2021/10/18 12:03:39;;;;;;;21.80;11.35;;;;;;;14.06;100.00;95376.34;10276972;28;20022;-68
2021/10/18 12:08:43;;;;;;;25.27;11.10;;;;;;;14.12;100.00;95377.13;10276275;28;20034;-73
2021/10/18 12:13:44;;;;;;;28.23;11.50;;;;;;;14.29;100.00;95371.34;10276655;28;20022;-68
2021/10/18 12:18:59;;;;;;;20.58;10.38;;;;;;;14.09;100.00;95364.19;10276393;28;20065;-68
2021/10/18 12:24:02;;;;;;;17.38;9.23;;;;;;;13.63;100.00;95363.34;10276094;28;20027;-69
2021/10/18 12:29:09;;;;;;;18.60;8.68;;;;;;;13.58;100.00;95360.66;10277060;28;20030;-74
2021/10/18 12:34:24;;;;;;;22.93;10.47;;;;;;;13.66;100.00;95368.19;10275759;28;20050;-69
2021/10/18 12:39:50;;;;;;;16.90;8.32;;;;;;;13.49;100.00;95365.84;10260106;28;20552;-69
2021/10/18 12:45:07;;;;;;;19.85;9.63;;;;;;;13.73;100.00;95365.19;10259821;28;20178;-69
2021/10/18 12:50:11;;;;;;;12.05;6.40;;;;;;;13.69;100.00;95369.53;10274847;28;20035;-68
2021/10/18 12:55:28;;;;;;;11.68;6.45;;;;;;;13.66;100.00;95370.91;10275111;28;20031;-69
2021/10/18 13:00:31;;;;;;;13.00;5.68;;;;;;;13.80;100.00;95375.69;10276455;28;20060;-71
2021/10/18 13:05:36;;;;;;;11.88;5.03;;;;;;;13.78;100.00;95367.84;10263654;28;20031;-69
2021/10/18 13:10:38;;;;;;;15.18;6.30;;;;;;;13.73;100.00;95367.91;10279776;28;20406;-69
2021/10/18 13:15:40;;;;;;;12.52;5.07;;;;;;;14.02;100.00;95361.78;10278498;28;20113;-69
2021/10/18 13:20:43;;;;;;;12.30;5.82;;;;;;;14.12;100.00;95366.31;10276906;28;20114;-69
2021/10/18 13:25:45;;;;;;;11.80;6.07;;;;;;;13.72;100.00;95374.38;10274810;28;20382;-74
2021/10/18 13:30:45;;;;;;;12.20;6.80;;;;;;;13.09;100.00;95372.94;10275666;28;20042;-72
2021/10/18 13:35:46;;;;;;;15.23;7.28;;;;;;;13.04;100.00;95369.44;10274636;28;20029;-72
2021/10/18 13:40:46;;;;;;;13.47;7.10;;;;;;;12.76;100.00;95368.94;10276555;28;20074;-67
2021/10/18 13:45:48;;;;;;;12.30;6.65;;;;;;;12.82;100.00;95365.16;10270230;28;20290;-68
2021/10/18 13:50:49;;;;;;;14.18;6.50;;;;;;;12.76;100.00;95366.25;10278529;28;20030;-72
2021/10/18 13:55:49;;;;;;;10.20;5.72;;;;;;;12.82;100.00;95357.88;10254227;28;20058;-74
2021/10/18 14:00:50;;;;;;;13.52;6.93;;;;;;;12.74;100.00;95355.72;10279499;28;20022;-72
2021/10/18 14:05:50;;;;;;;12.57;6.40;;;;;;;12.61;100.00;95359.78;10249659;28;20392;-68
2021/10/18 14:10:51;;;;;;;17.47;9.03;;;;;;;12.49;100.00;95353.84;10281391;28;20042;-73
2021/10/18 14:15:51;;;;;;;12.02;6.35;;;;;;;12.54;100.00;95355.72;10278739;28;20349;-72
2021/10/18 14:20:52;;;;;;;12.53;5.87;;;;;;;12.46;100.00;95352.50;10279318;28;20054;-69
2021/10/18 14:25:52;;;;;;;11.80;6.57;;;;;;;12.33;100.00;95350.31;10276645;28;20796;-68
2021/10/18 14:30:53;;;;;;;13.23;6.47;;;;;;;12.22;100.00;95349.50;10266851;28;20190;-70
2021/10/18 14:35:54;;;;;;;11.77;7.25;;;;;;;12.09;100.00;95347.34;10280590;28;20289;-75
2021/10/18 14:40:55;;;;;;;14.05;7.10;;;;;;;12.17;100.00;95344.13;10278025;28;20052;-73
2021/10/18 14:45:55;;;;;;;11.47;6.03;;;;;;;12.16;100.00;95350.59;10270267;28;20039;-68
2021/10/18 14:50:56;;;;;;;13.98;6.68;;;;;;;12.19;100.00;95360.81;10272234;28;20297;-69
2021/10/18 14:55:56;;;;;;;10.77;6.15;;;;;;;12.21;100.00;95371.34;10274516;28;20031;-68
2021/10/18 15:00:57;;;;;;;12.65;6.65;;;;;;;12.12;100.00;95371.84;10279189;28;20549;-73
2021/10/18 15:05:57;;;;;;;16.40;6.90;;;;;;;12.02;100.00;95371.84;10277851;28;20023;-70
2021/10/18 15:10:58;;;;;;;16.52;7.57;;;;;;;11.85;100.00;95377.44;10279419;28;20314;-77
2021/10/18 15:15:59;;;;;;;17.48;8.65;;;;;;;11.76;100.00;95379.00;10278672;28;20034;-76
2021/10/18 15:21:00;;;;;;;14.40;7.78;;;;;;;11.72;100.00;95383.31;10277816;28;20023;-68
2021/10/18 15:26:00;;;;;;;13.07;7.22;;;;;;;11.69;100.00;95405.38;10254437;28;20035;-69
2021/10/18 15:31:01;;;;;;;19.67;9.13;;;;;;;11.57;100.00;95413.69;10236543;29;20050;-68
2021/10/18 15:36:02;;;;;;;26.30;10.27;;;;;;;11.41;100.00;95421.69;10261311;28;20092;-71
2021/10/18 15:41:02;;;;;;;28.20;11.30;;;;;;;11.48;100.00;95418.75;10273800;28;20828;-74
2021/10/18 15:46:04;;;;;;;22.42;9.25;;;;;;;11.28;100.00;95422.94;10276413;28;20039;-67
2021/10/18 15:51:04;;;;;;;16.33;8.65;;;;;;;11.51;100.00;95422.81;10277188;28;20507;-69
2021/10/18 15:56:06;;;;;;;14.30;8.17;;;;;;;11.56;100.00;95430.91;10245650;28;20030;-68
2021/10/18 16:01:06;;;;;;;15.13;8.32;;;;;;;11.54;100.00;95433.03;10246504;28;20739;-69
2021/10/18 16:06:08;;;;;;;20.73;8.57;;;;;;;11.41;100.00;95435.16;10255457;28;20060;-71
2021/10/18 16:11:08;;;;;;;15.82;8.00;;;;;;;11.36;100.00;95445.88;10277095;28;20292;-68
2021/10/18 16:16:09;;;;;;;17.30;7.87;;;;;;;11.38;100.00;95451.81;10277341;28;20482;-69
2021/10/18 16:21:09;;;;;;;13.00;7.10;;;;;;;11.38;100.00;95451.00;10243843;28;20373;-68
2021/10/18 16:26:10;;;;;;;14.83;7.80;;;;;;;11.36;100.00;95462.03;10276776;28;20031;-71
2021/10/18 16:31:10;;;;;;;15.80;8.65;;;;;;;11.43;100.00;95454.53;10258813;28;20027;-73
2021/10/18 16:36:11;;;;;;;14.15;7.68;;;;;;;11.36;100.00;95456.66;10275048;28;20584;-69
2021/10/18 16:41:13;;;;;;;16.00;7.20;;;;;;;11.40;100.00;95467.69;10291862;28;20193;-73
2021/10/18 16:46:15;;;;;;;18.02;7.88;;;;;;;11.40;100.00;95473.06;10276624;28;20105;-69
2021/10/18 16:51:15;;;;;;;21.83;9.15;;;;;;;11.48;100.00;95486.03;10275120;28;20082;-69
2021/10/18 16:56:16;;;;;;;18.35;7.28;;;;;;;11.66;100.00;95486.69;10275430;28;20121;-69
2021/10/18 17:01:16;;;;;;;12.27;7.10;;;;;;;11.80;100.00;95491.34;10273182;28;20093;-69
2021/10/18 17:06:17;;;;;;;14.87;8.80;;;;;;;11.94;100.00;95493.59;10277209;28;20727;-74
2021/10/18 17:11:22;;;;;;;16.38;10.02;;;;;;;11.90;100.00;95487.91;10271183;28;20281;-68
2021/10/18 17:16:23;;;;;;;15.80;8.07;;;;;;;11.96;100.00;95494.94;10271698;28;20027;-68
2021/10/18 17:21:23;;;;;;;21.17;10.97;;;;;;;11.99;100.00;95504.38;10278578;28;20031;-69
2021/10/18 17:26:24;;;;;;;18.73;8.27;;;;;;;12.05;100.00;95506.03;10280796;28;20293;-72
2021/10/18 17:31:24;;;;;;;17.50;8.63;;;;;;;12.00;100.00;95506.03;10281850;28;20266;-74
2021/10/18 17:36:25;;;;;;;15.23;8.80;;;;;;;12.09;100.00;95512.50;10282412;28;20027;-70
2021/10/18 17:41:25;;;;;;;15.00;8.65;;;;;;;12.02;100.00;95514.63;10273917;28;20496;-72
2021/10/18 17:46:29;;;;;;;21.85;9.48;;;;;;;12.03;100.00;95513.56;10280849;28;20117;-73
2021/10/18 17:51:30;;;;;;;16.33;9.52;;;;;;;11.93;100.00;95517.00;10275416;28;20058;-73
2021/10/18 17:56:30;;;;;;;18.55;9.10;;;;;;;11.99;100.00;95527.81;10281891;28;20174;-68
2021/10/18 18:01:30;;;;;;;20.77;10.40;;;;;;;11.68;100.00;95531.13;10279341;28;20183;-68
2021/10/18 18:06:35;;;;;;;20.53;10.63;;;;;;;11.44;100.00;95538.78;10282651;28;20301;-68
2021/10/18 18:11:35;;;;;;;21.40;9.98;;;;;;;11.36;100.00;95536.56;10296700;28;20273;-68
2021/10/18 18:16:36;;;;;;;17.58;10.25;;;;;;;11.19;100.00;95547.47;10297210;28;20025;-69
2021/10/18 18:21:39;;;;;;;20.10;10.60;;;;;;;11.21;100.00;95542.66;10296834;28;20023;-72
2021/10/18 18:26:41;;;;;;;16.15;9.85;;;;;;;11.15;100.00;95555.25;10294911;28;20559;-73
2021/10/18 18:31:41;;;;;;;23.40;10.60;;;;;;;11.01;100.00;95551.34;10277149;28;20039;-68
2021/10/18 18:36:42;;;;;;;17.40;9.55;;;;;;;11.19;100.00;95560.91;10278004;28;20023;-68
2021/10/18 18:41:42;;;;;;;23.90;10.65;;;;;;;11.07;100.00;95563.78;10279266;28;20214;-67
2021/10/18 18:46:43;;;;;;;21.92;11.10;;;;;;;11.01;100.00;95572.88;10278910;28;20047;-68
2021/10/18 18:51:43;;;;;;;21.77;11.43;;;;;;;10.94;100.00;95578.47;10280419;28;20121;-68
2021/10/18 18:56:46;;;;;;;18.88;11.18;;;;;;;11.01;100.00;95570.16;10279845;28;20097;-69
2021/10/18 19:01:46;;;;;;;14.90;10.02;;;;;;;10.98;100.00;95576.91;10274734;28;20030;-72
2021/10/18 19:06:52;;;;;;;18.67;10.93;;;;;;;11.01;100.00;95587.13;10253910;28;20036;-68
2021/10/18 19:11:53;;;;;;;19.65;11.13;;;;;;;10.93;100.00;95593.78;10239226;28;20075;-68
2021/10/18 19:16:53;;;;;;;18.27;10.80;;;;;;;11.14;100.00;95596.66;10241207;28;20022;-67
2021/10/18 19:21:54;;;;;;;18.37;11.00;;;;;;;11.26;100.00;95601.88;10278537;28;20716;-68
2021/10/18 19:26:54;;;;;;;20.27;10.88;;;;;;;11.40;100.00;95611.16;10269720;28;20278;-68
2021/10/18 19:31:55;;;;;;;18.98;10.10;;;;;;;11.42;100.00;95622.47;10243697;28;20103;-69
2021/10/18 19:36:55;;;;;;;23.83;10.30;;;;;;;11.50;100.00;95620.38;10275201;28;20492;-69
2021/10/18 19:41:56;;;;;;;18.67;9.82;;;;;;;11.61;100.00;95632.88;10278228;28;20536;-73
2021/10/18 19:46:56;;;;;;;20.73;10.37;;;;;;;11.29;100.00;95636.38;10278949;28;20089;-72
2021/10/18 19:51:58;;;;;;;23.17;10.48;;;;;;;11.31;100.00;95641.50;10278355;28;20278;-68
2021/10/18 19:56:58;;;;;;;17.88;9.55;;;;;;;11.41;100.00;95639.72;10277410;28;20029;-70
2021/10/18 20:02:14;;;;;;;20.02;10.10;;;;;;;11.37;100.00;95638.59;10645994;27;20377;-72
2021/10/18 20:07:15;;;;;;;18.38;10.13;;;;;;;11.34;100.00;95644.47;10556415;28;20089;-69
2021/10/18 20:12:22;;;;;;;18.97;9.10;;;;;;;11.36;100.00;95654.97;10541751;28;20090;-74
2021/10/18 20:17:23;;;;;;;20.75;11.10;;;;;;;11.35;100.00;95662.25;10559988;28;20754;-68
2021/10/18 20:22:23;;;;;;;21.90;10.30;;;;;;;11.47;100.00;95662.09;10541750;28;20019;-72
2021/10/18 20:27:23;;;;;;;16.58;9.38;;;;;;;11.42;100.00;95664.72;10541181;28;20045;-68
2021/10/18 20:32:24;;;;;;;18.23;10.73;;;;;;;11.42;100.00;95659.34;10541299;28;20572;-72
2021/10/18 20:37:26;;;;;;;20.00;10.60;;;;;;;11.31;100.00;95668.41;10541107;28;20101;-73
2021/10/18 20:42:27;;;;;;;20.48;10.27;;;;;;;11.10;100.00;95677.06;10540785;28;20583;-69
2021/10/18 20:47:28;;;;;;;28.15;11.50;;;;;;;11.19;100.00;95685.50;10533858;28;20029;-69
2021/10/18 20:52:28;;;;;;;17.83;9.80;;;;;;;10.97;100.00;95680.16;10497950;28;20020;-73
2021/10/18 20:57:29;;;;;;;23.95;10.65;;;;;;;10.98;100.00;95683.66;10513341;28;20672;-74
2021/10/18 21:02:29;;;;;;;18.52;10.48;;;;;;;10.85;100.00;95691.03;10473810;28;20036;-67
2021/10/18 21:07:29;;;;;;;20.27;9.68;;;;;;;10.82;100.00;95690.75;10437800;28;20020;-73
2021/10/18 21:12:31;;;;;;;26.47;10.80;;;;;;;10.55;100.00;95694.19;10436420;28;20024;-69
2021/10/18 21:17:32;;;;;;;24.00;11.45;;;;;;;10.58;100.00;95702.53;10468043;28;20310;-73
2021/10/18 21:22:33;;;;;;;17.77;10.45;;;;;;;10.47;100.00;95697.31;10458405;28;20119;-73
2021/10/18 21:27:33;;;;;;;20.17;10.85;;;;;;;10.48;100.00;95699.75;10445343;28;20525;-72
2021/10/18 21:32:34;;;;;;;18.23;9.98;;;;;;;10.66;100.00;95698.63;10444419;28;20112;-70
2021/10/18 21:37:35;;;;;;;19.48;10.45;;;;;;;10.40;100.00;95700.16;10445891;28;20066;-72
2021/10/18 21:42:35;;;;;;;21.52;11.25;;;;;;;10.58;100.00;95704.44;10427735;28;20623;-69
2021/10/18 21:47:36;;;;;;;34.95;16.77;;;;;;;10.58;100.00;95702.53;10450486;28;20024;-69
2021/10/18 21:52:37;;;;;;;19.73;11.43;;;;;;;10.34;100.00;95714.53;10468007;28;20127;-69
2021/10/18 21:57:38;;;;;;;19.50;10.95;;;;;;;10.24;100.00;95710.66;10467509;28;20040;-75
2021/10/18 22:02:39;;;;;;;20.90;11.80;;;;;;;10.33;100.00;95708.38;10442230;28;20544;-72
2021/10/18 22:07:40;;;;;;;21.50;12.48;;;;;;;10.48;100.00;95710.50;10425433;28;20260;-68
2021/10/18 22:12:40;;;;;;;19.93;11.37;;;;;;;10.45;100.00;95702.09;10425749;28;20024;-69
2021/10/18 22:17:41;;;;;;;23.73;12.05;;;;;;;10.52;100.00;95705.41;10442402;28;20272;-68
2021/10/18 22:22:41;;;;;;;19.88;10.88;;;;;;;10.60;100.00;95696.91;10442573;28;20406;-66
2021/10/18 22:27:42;;;;;;;24.08;12.73;;;;;;;10.55;100.00;95700.38;10408835;28;20028;-68
2021/10/18 22:32:42;;;;;;;22.67;11.38;;;;;;;10.55;100.00;95702.25;10425123;28;20020;-70
2021/10/18 22:37:43;;;;;;;23.73;11.82;;;;;;;10.41;100.00;95702.59;10442372;28;20037;-68
2021/10/18 22:42:44;;;;;;;19.15;11.02;;;;;;;10.24;100.00;95704.47;10442158;28;20024;-75
2021/10/18 22:47:44;;;;;;;23.77;12.18;;;;;;;10.06;100.00;95705.53;10465625;28;20158;-68
2021/10/18 22:52:45;;;;;;;25.25;12.48;;;;;;;9.92;100.00;95705.06;10464349;28;20025;-68
2021/10/18 22:57:45;;;;;;;22.80;12.00;;;;;;;9.72;100.00;95711.72;10440474;28;20055;-69
2021/10/18 23:02:46;;;;;;;24.05;13.63;;;;;;;9.58;100.00;95711.22;10424641;28;20025;-67
2021/10/18 23:07:46;;;;;;;23.00;12.33;;;;;;;9.45;100.00;95700.81;10454016;28;20043;-69
2021/10/18 23:12:47;;;;;;;23.13;13.10;;;;;;;9.33;100.00;95703.53;10464484;28;20270;-68
2021/10/18 23:17:47;;;;;;;27.60;13.68;;;;;;;9.11;100.00;95706.13;10482364;28;20791;-69
2021/10/18 23:22:48;;;;;;;30.83;13.38;;;;;;;8.97;100.00;95712.81;10439759;28;20031;-74
2021/10/18 23:27:48;;;;;;;22.35;11.93;;;;;;;8.87;100.00;95721.47;10423173;28;20017;-69
2021/10/18 23:32:49;;;;;;;25.13;13.23;;;;;;;8.83;100.00;95723.81;10422678;28;20024;-69
2021/10/18 23:37:52;;;;;;;23.57;13.13;;;;;;;8.84;100.00;95729.97;10440410;28;20025;-68
2021/10/18 23:42:52;;;;;;;23.40;12.65;;;;;;;8.79;100.00;95733.38;10422146;28;20366;-68
2021/10/18 23:47:53;;;;;;;31.42;12.65;;;;;;;8.74;100.00;95729.78;10422360;28;20024;-73